Time;durP1;ratioP1;P1;durP2;ratioP2;P2;SDS_P1;SDS_P2;PMS_P1;PMS_P2;Temp;Humidity;BMP_temperature;BMP_pressure;BME280_temperature;BME280_humidity;BME280_pressure;Samples;Min_cycle;Max_cycle;Signal;HPM_P1;HPM_P2
2021/10/21 00:02:12;;;;;;;11.45;3.95;;;;;;;13.76;88.15;99186.72;10289906;28;20041;-67
2021/10/21 00:07:10;;;;;;;9.23;3.13;;;;;;;13.79;88.47;99164.03;10295660;28;20037;-69
2021/10/21 00:12:06;;;;;;;7.97;3.08;;;;;;;13.79;87.77;99158.53;10301995;28;20075;-67
2021/10/21 00:17:03;;;;;;;10.98;3.78;;;;;;;13.78;87.99;99167.94;10312000;28;20143;-68
2021/10/21 00:21:59;;;;;;;8.95;3.30;;;;;;;13.75;87.78;99135.72;10281629;28;20080;-68
2021/10/21 00:26:56;;;;;;;7.53;2.85;;;;;;;13.77;87.92;99119.66;10283093;28;20094;-68
2021/10/21 00:31:52;;;;;;;9.45;3.65;;;;;;;13.77;88.27;99116.91;10304388;28;20099;-68
2021/10/21 00:36:49;;;;;;;9.82;3.58;;;;;;;13.80;88.56;99102.41;10310304;28;20065;-67
2021/10/21 00:41:45;;;;;;;6.15;2.75;;;;;;;13.84;88.88;99097.75;10299690;28;20045;-67
2021/10/21 00:46:42;;;;;;;11.55;3.72;;;;;;;13.85;88.37;99086.41;10296780;28;20474;-68
2021/10/21 00:51:40;;;;;;;7.78;3.30;;;;;;;13.89;88.56;99069.91;10308228;28;20489;-68
2021/10/21 00:56:37;;;;;;;7.95;3.20;;;;;;;13.91;88.47;99051.09;10300946;28;20077;-67
2021/10/21 01:01:34;;;;;;;7.30;3.30;;;;;;;13.88;89.02;99029.91;10303135;28;20086;-67
2021/10/21 01:06:33;;;;;;;10.10;3.50;;;;;;;13.86;88.88;98989.06;10297390;28;20055;-67
2021/10/21 01:11:29;;;;;;;6.00;2.85;;;;;;;13.83;89.11;98967.84;10309978;28;20094;-67
2021/10/21 01:16:26;;;;;;;8.82;3.50;;;;;;;13.77;89.17;98954.84;10308105;28;20076;-67
2021/10/21 01:21:22;;;;;;;8.82;3.67;;;;;;;13.71;89.46;98939.91;10292818;28;20060;-67
2021/10/21 01:26:19;;;;;;;8.70;3.25;;;;;;;13.68;89.43;98917.50;10298987;28;20569;-69
2021/10/21 01:31:15;;;;;;;8.82;3.65;;;;;;;13.71;89.89;98909.69;10300092;28;20048;-68
2021/10/21 01:36:13;;;;;;;9.35;3.90;;;;;;;13.73;90.22;98885.38;10295161;28;20053;-67
2021/10/21 01:41:09;;;;;;;8.43;3.88;;;;;;;13.77;89.94;98866.97;10304228;28;20421;-69
2021/10/21 01:46:07;;;;;;;10.02;4.20;;;;;;;13.78;89.95;98832.81;10300312;28;20075;-69
2021/10/21 01:51:04;;;;;;;7.95;3.75;;;;;;;13.77;90.38;98809.28;10279638;28;20128;-69
2021/10/21 01:56:00;;;;;;;6.32;3.47;;;;;;;13.74;90.59;98793.56;10286066;28;20562;-69
2021/10/21 02:00:57;;;;;;;7.07;3.40;;;;;;;13.70;90.89;98777.06;10298246;28;20070;-67
2021/10/21 02:05:54;;;;;;;8.32;3.67;;;;;;;13.70;90.71;98770.81;10305569;28;20049;-68
2021/10/21 02:10:50;;;;;;;10.95;4.30;;;;;;;13.65;91.43;98764.50;10283301;28;20068;-68
2021/10/21 02:15:47;;;;;;;7.30;3.65;;;;;;;13.66;92.37;98744.09;10310243;28;20102;-67
2021/10/21 02:20:43;;;;;;;8.38;3.50;;;;;;;13.61;93.72;98727.22;10301854;28;20037;-68
2021/10/21 02:25:40;;;;;;;9.43;3.65;;;;;;;13.58;93.80;98704.06;10294823;28;20498;-69
2021/10/21 02:30:36;;;;;;;6.05;3.17;;;;;;;13.56;94.63;98684.44;10283806;28;20080;-69
2021/10/21 02:35:34;;;;;;;9.60;4.10;;;;;;;13.52;95.75;98683.63;10303806;28;20060;-69
2021/10/21 02:40:30;;;;;;;8.15;4.50;;;;;;;13.50;96.34;98666.78;10296973;28;20554;-67
2021/10/21 02:45:27;;;;;;;7.85;3.78;;;;;;;13.42;97.28;98645.97;10296619;28;20052;-68
2021/10/21 02:50:24;;;;;;;10.52;4.72;;;;;;;13.34;98.13;98605.94;10297650;28;20067;-70
2021/10/21 02:55:22;;;;;;;10.48;4.38;;;;;;;13.33;99.26;98604.38;10302390;28;20541;-70
2021/10/21 03:00:18;;;;;;;7.35;3.40;;;;;;;13.30;98.97;98561.22;10295583;28;20075;-70
2021/10/21 03:05:15;;;;;;;8.90;4.07;;;;;;;13.27;98.79;98507.88;10293996;28;20487;-70
2021/10/21 03:10:11;;;;;;;7.95;3.47;;;;;;;13.31;98.64;98507.91;10283143;28;20090;-70
2021/10/21 03:15:08;;;;;;;7.60;3.33;;;;;;;13.25;98.85;98478.09;10300387;28;20053;-71
2021/10/21 03:20:05;;;;;;;8.10;2.88;;;;;;;13.25;99.27;98430.63;10284101;28;20177;-70
2021/10/21 03:25:01;;;;;;;10.93;3.65;;;;;;;13.22;98.97;98407.50;10291533;28;20045;-70
2021/10/21 03:29:58;;;;;;;7.28;3.60;;;;;;;13.17;99.98;98372.25;10293245;28;20080;-70
2021/10/21 03:34:54;;;;;;;10.40;4.95;;;;;;;13.18;100.00;98362.84;10287892;28;20069;-69
2021/10/21 03:39:51;;;;;;;14.13;5.15;;;;;;;13.17;100.00;98339.31;10299595;28;20040;-69
2021/10/21 03:44:49;;;;;;;8.13;4.95;;;;;;;13.21;100.00;98304.44;10309556;28;20044;-69
2021/10/21 03:49:46;;;;;;;9.48;4.53;;;;;;;13.18;100.00;98280.53;10306708;28;20090;-69
2021/10/21 03:54:43;;;;;;;9.32;4.63;;;;;;;13.16;100.00;98265.63;10281079;28;20514;-69
2021/10/21 03:59:39;;;;;;;11.43;4.55;;;;;;;13.14;100.00;98263.28;10292951;28;20040;-69
2021/10/21 04:04:36;;;;;;;12.73;5.75;;;;;;;13.12;100.00;98273.09;10293724;28;20106;-69
2021/10/21 04:09:32;;;;;;;8.10;5.05;;;;;;;13.09;100.00;98244.50;10294059;28;20049;-69
2021/10/21 04:14:29;;;;;;;11.88;5.88;;;;;;;13.11;100.00;98269.56;10297181;28;20152;-70
2021/10/21 04:19:26;;;;;;;15.48;6.70;;;;;;;13.06;100.00;98327.56;10301981;28;20040;-70
2021/10/21 04:24:22;;;;;;;8.93;3.60;;;;;;;12.75;100.00;98301.72;10302137;28;20076;-70
2021/10/21 04:29:19;;;;;;;3.38;1.90;;;;;;;12.48;97.52;98310.28;10300924;28;20037;-70
2021/10/21 04:34:15;;;;;;;4.93;1.60;;;;;;;12.17;96.06;98257.00;10282482;28;20080;-73
2021/10/21 04:39:12;;;;;;;5.88;1.60;;;;;;;12.06;95.45;98256.19;10292790;28;20081;-71
2021/10/21 04:44:08;;;;;;;7.45;1.30;;;;;;;11.93;94.96;98248.34;10298219;28;20095;-73
2021/10/21 04:49:05;;;;;;;5.93;1.38;;;;;;;11.97;92.35;98227.25;10291770;28;20076;-69
2021/10/21 04:54:01;;;;;;;6.07;1.60;;;;;;;11.95;93.77;98256.97;10284047;28;20114;-72
2021/10/21 04:58:58;;;;;;;4.75;1.50;;;;;;;11.94;92.36;98214.31;10290995;28;20080;-72
2021/10/21 05:03:54;;;;;;;4.65;1.58;;;;;;;11.91;92.10;98234.25;10297069;28;20040;-72
2021/10/21 05:08:51;;;;;;;6.88;1.88;;;;;;;11.97;91.02;98237.38;10293324;28;20041;-72
2021/10/21 05:13:48;;;;;;;10.02;1.67;;;;;;;12.08;90.83;98253.84;10300381;28;20090;-72
2021/10/21 05:18:45;;;;;;;3.58;1.00;;;;;;;11.98;88.73;98291.78;10288594;28;20045;-72
2021/10/21 05:23:41;;;;;;;3.95;1.13;;;;;;;11.65;87.30;98289.25;10300361;28;21219;-72
2021/10/21 05:28:38;;;;;;;5.32;1.23;;;;;;;11.46;88.35;98318.47;10293270;28;20090;-72
2021/10/21 05:33:35;;;;;;;3.72;0.98;;;;;;;11.41;88.91;98296.97;10297278;28;20088;-73
2021/10/21 05:38:32;;;;;;;4.20;0.90;;;;;;;11.38;87.87;98300.47;10290243;28;22293;-73
2021/10/21 05:43:30;;;;;;;3.30;0.95;;;;;;;11.36;87.43;98297.31;10300589;28;20564;-73
2021/10/21 05:48:28;;;;;;;4.18;1.65;;;;;;;11.40;86.97;98281.72;10308054;28;20572;-73
2021/10/21 05:53:25;;;;;;;3.60;1.20;;;;;;;11.42;87.08;98284.84;10290803;28;20047;-71
2021/10/21 05:58:22;;;;;;;3.67;1.17;;;;;;;11.46;86.57;98285.63;10290392;28;20036;-71
2021/10/21 06:03:19;;;;;;;4.10;0.90;;;;;;;11.44;86.68;98266.13;10300502;28;20102;-72
2021/10/21 06:08:15;;;;;;;3.83;1.15;;;;;;;11.44;86.75;98263.38;10288059;28;20502;-73
2021/10/21 06:13:11;;;;;;;7.22;1.30;;;;;;;11.50;85.78;98258.31;10286271;28;20099;-70
2021/10/21 06:18:11;;;;;;;4.05;1.50;;;;;;;11.47;85.30;98254.38;10284272;28;20473;-72
2021/10/21 06:23:08;;;;;;;4.82;1.20;;;;;;;11.44;86.52;98252.44;10294275;28;20080;-72
2021/10/21 06:28:04;;;;;;;8.55;1.40;;;;;;;11.36;87.06;98253.53;10296239;28;20067;-73
2021/10/21 06:33:05;;;;;;;3.67;1.08;;;;;;;11.36;87.58;98248.06;10290982;28;20497;-72
2021/10/21 06:38:01;;;;;;;5.18;1.00;;;;;;;11.22;89.42;98250.75;10304277;28;20061;-72
2021/10/21 06:42:58;;;;;;;5.25;1.60;;;;;;;11.14;92.05;98226.09;10307706;28;20418;-72
2021/10/21 06:47:54;;;;;;;3.70;0.88;;;;;;;10.97;92.66;98215.81;10294186;28;20079;-70
2021/10/21 06:52:51;;;;;;;6.20;1.33;;;;;;;10.94;94.18;98211.13;10300888;28;20433;-73
2021/10/21 06:57:51;;;;;;;6.80;1.30;;;;;;;10.85;95.55;98207.94;10293662;28;20063;-72
2021/10/21 07:02:48;;;;;;;6.03;1.10;;;;;;;10.72;97.61;98213.72;10285120;28;20047;-72
2021/10/21 07:07:44;;;;;;;4.93;1.42;;;;;;;10.69;100.00;98222.66;10285476;28;20055;-73
2021/10/21 07:12:42;;;;;;;17.25;2.47;;;;;;;10.60;100.00;98219.47;10276130;28;20399;-73
2021/10/21 07:17:40;;;;;;;5.18;1.23;;;;;;;10.52;100.00;98206.91;10261546;28;20540;-75
2021/10/21 07:22:37;;;;;;;5.28;1.42;;;;;;;10.39;100.00;98203.69;10253263;28;20068;-74
2021/10/21 07:27:34;;;;;;;5.70;1.38;;;;;;;10.39;100.00;98213.84;10266069;28;20064;-73
2021/10/21 07:32:30;;;;;;;5.13;1.10;;;;;;;10.37;100.00;98200.53;10255943;28;20092;-73
2021/10/21 07:37:27;;;;;;;3.35;1.10;;;;;;;10.27;100.00;98207.47;10263738;28;20071;-74
2021/10/21 07:42:23;;;;;;;2.95;0.80;;;;;;;10.15;100.00;98199.56;10260461;28;20068;-75
2021/10/21 07:47:20;;;;;;;4.18;1.13;;;;;;;9.92;99.22;98218.03;10265340;28;20485;-75
2021/10/21 07:52:17;;;;;;;1.15;0.40;;;;;;;9.99;99.91;98207.19;10281052;28;20094;-75
2021/10/21 07:57:14;;;;;;;5.75;0.63;;;;;;;9.91;100.00;98211.81;10291204;28;20079;-75
2021/10/21 08:02:11;;;;;;;22.65;1.35;;;;;;;9.91;100.00;98222.72;10288582;28;20076;-75
2021/10/21 08:07:08;;;;;;;2.05;0.50;;;;;;;9.88;100.00;98235.16;10265555;28;20074;-75
2021/10/21 08:12:07;;;;;;;1.15;0.70;;;;;;;9.80;100.00;98260.81;10273102;28;20095;-75
2021/10/21 08:17:03;;;;;;;3.50;0.73;;;;;;;9.88;100.00;98284.28;10299356;28;20102;-75
2021/10/21 08:22:01;;;;;;;3.30;0.88;;;;;;;9.85;100.00;98293.22;10287640;28;20095;-75
2021/10/21 08:26:58;;;;;;;4.38;1.10;;;;;;;9.89;100.00;98329.53;10296032;28;20552;-75
2021/10/21 08:32:06;;;;;;;3.08;0.50;;;;;;;9.90;100.00;98396.59;10305826;28;20053;-73
2021/10/21 08:37:04;;;;;;;4.68;0.93;;;;;;;9.83;100.00;98423.81;10284230;28;20049;-75
2021/10/21 08:42:04;;;;;;;2.05;0.60;;;;;;;9.76;100.00;98472.81;10297951;28;20094;-73
2021/10/21 08:47:00;;;;;;;2.58;1.35;;;;;;;9.66;99.32;98500.75;10289328;28;20118;-73
2021/10/21 08:51:57;;;;;;;1.73;0.50;;;;;;;9.66;97.90;98517.13;10303602;28;20051;-73
2021/10/21 08:56:54;;;;;;;3.88;0.57;;;;;;;9.60;98.52;98562.22;10300799;28;20044;-73
2021/10/21 09:02:01;;;;;;;18.63;3.30;;;;;;;9.64;98.25;98588.41;10309048;28;20057;-73
2021/10/21 09:12:05;;;;;;;3.30;1.27;;;;;;;9.65;97.98;98660.13;10292923;28;20044;-73
2021/10/21 09:17:03;;;;;;;3.70;0.90;;;;;;;9.77;99.97;98689.19;10292849;28;20105;-73
2021/10/21 09:22:00;;;;;;;4.13;1.08;;;;;;;9.84;99.53;98709.25;10284113;28;20461;-74
2021/10/21 09:27:08;;;;;;;6.28;1.42;;;;;;;9.94;99.12;98739.84;10290169;28;20387;-73
2021/10/21 09:32:13;;;;;;;6.22;0.82;;;;;;;10.03;97.96;98754.84;10300411;28;20067;-73
2021/10/21 09:37:22;;;;;;;10.45;1.65;;;;;;;10.02;98.61;98796.13;10298864;28;20113;-74
2021/10/21 09:42:30;;;;;;;5.07;0.93;;;;;;;10.15;99.20;98811.22;10299349;28;20065;-73
2021/10/21 09:47:27;;;;;;;13.00;1.40;;;;;;;10.14;99.17;98822.50;10299282;28;20068;-74
2021/10/21 09:52:24;;;;;;;6.93;1.25;;;;;;;10.17;99.89;98858.09;10295302;28;20068;-74
2021/10/21 09:57:28;;;;;;;5.35;0.68;;;;;;;10.04;99.77;98892.91;10302485;28;20086;-73
2021/10/21 10:02:29;;;;;;;9.95;1.15;;;;;;;9.86;100.00;98906.22;10303652;28;20052;-74
2021/10/21 10:07:25;;;;;;;9.63;1.20;;;;;;;9.78;100.00;98912.66;10284631;28;20095;-73
2021/10/21 10:12:22;;;;;;;20.52;2.42;;;;;;;9.67;100.00;98928.00;10263044;28;20098;-74
2021/10/21 10:17:18;;;;;;;4.20;1.05;;;;;;;9.61;100.00;98971.16;10261804;28;20152;-73
2021/10/21 10:22:32;;;;;;;11.13;1.50;;;;;;;9.59;100.00;99008.13;10262560;28;20052;-73
2021/10/21 10:27:32;;;;;;;7.20;0.95;;;;;;;9.72;100.00;99036.88;10261113;28;20064;-73
2021/10/21 10:32:37;;;;;;;8.20;0.80;;;;;;;9.77;100.00;99063.94;10266900;28;20041;-73
2021/10/21 10:37:41;;;;;;;3.85;0.65;;;;;;;9.81;100.00;99078.44;10275043;28;20103;-73
2021/10/21 10:42:38;;;;;;;9.90;1.10;;;;;;;9.89;100.00;99082.94;10294071;28;20078;-73
2021/10/21 10:47:54;;;;;;;8.55;1.27;;;;;;;10.03;100.00;99098.88;10295467;28;20044;-73
2021/10/21 10:53:04;;;;;;;10.60;2.05;;;;;;;10.08;100.00;99103.28;10301574;28;20477;-73
2021/10/21 10:58:01;;;;;;;15.00;3.05;;;;;;;10.26;100.00;99118.16;10282721;28;20045;-74
2021/10/21 11:02:58;;;;;;;12.77;1.30;;;;;;;10.20;100.00;99146.88;10300681;28;20075;-73
2021/10/21 11:07:55;;;;;;;7.60;1.30;;;;;;;10.28;100.00;99169.66;10280280;28;20045;-73
2021/10/21 11:12:58;;;;;;;12.80;1.48;;;;;;;10.24;100.00;99196.91;10292428;28;20067;-73
2021/10/21 11:17:59;;;;;;;9.82;1.88;;;;;;;10.27;100.00;99201.66;10289831;28;20045;-73
2021/10/21 11:22:58;;;;;;;12.13;2.03;;;;;;;10.26;100.00;99221.94;10289566;28;20136;-73
2021/10/21 11:27:56;;;;;;;10.43;1.13;;;;;;;10.17;100.00;99215.06;10290526;28;20281;-72
2021/10/21 11:32:55;;;;;;;10.52;2.03;;;;;;;10.22;100.00;99229.25;10270978;28;20065;-75
2021/10/21 11:37:57;;;;;;;10.65;1.77;;;;;;;10.13;100.00;99225.91;10292642;28;20049;-75
2021/10/21 11:42:56;;;;;;;13.00;1.65;;;;;;;10.05;99.28;99256.91;10303439;28;20134;-75
2021/10/21 11:47:54;;;;;;;10.25;1.30;;;;;;;9.82;98.64;99251.22;10294562;28;20566;-74
2021/10/21 11:52:51;;;;;;;18.65;1.80;;;;;;;9.64;98.11;99280.72;10303970;28;20045;-73
2021/10/21 11:57:48;;;;;;;6.47;0.88;;;;;;;9.41;92.82;99275.78;10303945;28;20101;-74
2021/10/21 12:02:45;;;;;;;11.32;1.40;;;;;;;9.86;91.79;99282.94;10304259;28;20048;-74
2021/10/21 12:07:42;;;;;;;12.15;1.90;;;;;;;10.03;90.78;99295.47;10289975;28;20044;-74
2021/10/21 12:12:40;;;;;;;10.95;1.23;;;;;;;10.36;84.59;99310.03;10293308;28;20045;-74
2021/10/21 12:17:37;;;;;;;7.25;1.02;;;;;;;10.56;81.94;99328.13;10300307;28;20139;-74
2021/10/21 12:22:37;;;;;;;10.75;1.60;;;;;;;10.37;81.98;99330.72;10285554;28;20396;-74
2021/10/21 12:27:33;;;;;;;12.80;1.55;;;;;;;10.36;81.56;99356.47;10302859;28;20131;-74
2021/10/21 12:32:30;;;;;;;9.15;1.23;;;;;;;10.51;82.21;99363.88;10291536;28;20048;-74
2021/10/21 12:37:28;;;;;;;8.63;1.33;;;;;;;10.72;76.83;99391.78;10280770;28;20056;-74
2021/10/21 12:42:27;;;;;;;14.30;1.90;;;;;;;10.70;76.91;99391.34;10298802;28;20080;-74
2021/10/21 12:47:28;;;;;;;12.75;1.52;;;;;;;10.58;76.86;99396.88;10305485;28;20517;-74
2021/10/21 12:52:30;;;;;;;8.73;1.33;;;;;;;10.43;76.87;99412.09;10292483;28;20071;-73
2021/10/21 12:57:27;;;;;;;9.80;1.50;;;;;;;10.21;77.02;99421.63;10285574;28;20079;-73
2021/10/21 13:02:27;;;;;;;13.98;1.70;;;;;;;10.33;78.74;99437.19;10300164;28;20041;-73
2021/10/21 13:07:26;;;;;;;12.27;1.42;;;;;;;10.35;78.67;99453.22;10274644;28;20040;-74
2021/10/21 13:12:23;;;;;;;9.27;1.50;;;;;;;10.29;77.68;99450.75;10291540;28;20040;-74
2021/10/21 13:17:21;;;;;;;14.95;1.70;;;;;;;10.18;77.26;99460.53;10292312;28;20044;-74
2021/10/21 13:22:18;;;;;;;11.77;2.05;;;;;;;10.14;79.71;99476.00;10287325;28;20516;-73
2021/10/21 13:27:15;;;;;;;12.18;2.20;;;;;;;10.09;79.45;99473.53;10291724;28;20049;-73
2021/10/21 13:32:12;;;;;;;11.00;1.42;;;;;;;10.17;81.25;99512.78;10287224;28;20056;-73
2021/10/21 13:37:08;;;;;;;14.20;1.45;;;;;;;9.92;79.90;99534.66;10297125;28;20113;-74
2021/10/21 13:42:06;;;;;;;13.35;1.65;;;;;;;9.59;77.48;99532.81;10301914;28;20044;-73
2021/10/21 13:47:04;;;;;;;11.65;1.52;;;;;;;9.58;78.21;99525.75;10294612;28;20110;-73
2021/10/21 13:52:01;;;;;;;9.52;1.48;;;;;;;9.61;78.68;99529.78;10280625;28;20072;-73
2021/10/21 13:56:59;;;;;;;9.27;1.23;;;;;;;9.61;80.59;99540.69;10287046;28;20576;-73
2021/10/21 14:01:55;;;;;;;10.25;1.27;;;;;;;9.64;82.79;99557.16;10281208;28;20542;-72
2021/10/21 14:06:52;;;;;;;10.90;1.60;;;;;;;9.56;83.49;99588.09;10291542;28;20037;-75
2021/10/21 14:11:48;;;;;;;10.95;1.60;;;;;;;9.44;85.57;99579.88;10283557;28;20041;-73
2021/10/21 14:16:45;;;;;;;13.13;1.83;;;;;;;9.36;86.06;99589.75;10283097;28;20052;-74
2021/10/21 14:21:42;;;;;;;13.88;1.92;;;;;;;9.35;87.34;99596.34;10286577;28;20045;-74
2021/10/21 14:26:39;;;;;;;12.15;1.75;;;;;;;9.44;87.13;99597.03;10276292;28;20657;-75
2021/10/21 14:31:39;;;;;;;20.05;2.45;;;;;;;9.39;85.29;99591.78;10263968;28;20479;-75
2021/10/21 14:36:37;;;;;;;11.30;1.17;;;;;;;9.28;81.22;99626.06;10276150;28;20039;-75
2021/10/21 14:41:35;;;;;;;13.25;1.77;;;;;;;9.25;82.49;99621.31;10295089;28;20467;-75
2021/10/21 14:46:33;;;;;;;4.85;0.90;;;;;;;9.29;82.41;99646.78;10289619;28;20067;-74
2021/10/21 14:51:33;;;;;;;9.90;1.33;;;;;;;9.20;83.10;99678.78;10288931;28;20044;-75
2021/10/21 14:56:31;;;;;;;7.88;1.20;;;;;;;9.23;84.21;99694.47;10292868;28;20048;-73
2021/10/21 15:01:28;;;;;;;7.45;1.90;;;;;;;9.08;82.10;99704.06;10285057;28;20095;-72
2021/10/21 15:27:16;;;;;;;5.65;0.98;;;;;;;8.57;85.13;99728.59;10277771;28;20041;-73
2021/10/21 15:32:12;;;;;;;8.32;0.82;;;;;;;8.65;86.54;99762.34;10291835;28;20107;-73
2021/10/21 15:37:10;;;;;;;8.60;1.50;;;;;;;8.76;87.33;99781.88;10281292;28;20064;-73
2021/10/21 15:42:07;;;;;;;14.25;2.35;;;;;;;8.66;88.26;99850.34;10279934;28;20040;-73
2021/10/21 15:47:03;;;;;;;6.18;1.08;;;;;;;8.31;86.03;99828.63;10300728;28;20036;-73
2021/10/21 16:13:02;;;;;;;10.40;1.60;;;;;;;8.47;90.83;99848.84;10288961;28;20171;-72
2021/10/21 16:18:07;;;;;;;8.50;1.17;;;;;;;8.37;90.32;99860.03;10281866;28;20144;-73
2021/10/21 16:23:10;;;;;;;14.80;1.88;;;;;;;8.39;91.20;99874.13;10291383;28;20040;-72
2021/10/21 16:28:12;;;;;;;13.45;1.67;;;;;;;8.29;90.79;99871.75;10294887;28;20523;-71
2021/10/21 16:33:08;;;;;;;8.55;2.40;;;;;;;8.35;91.35;99881.34;10288274;28;20449;-71
2021/10/21 16:38:05;;;;;;;11.57;2.13;;;;;;;8.31;90.67;99911.16;10283672;28;20072;-72
2021/10/21 16:43:21;;;;;;;15.60;1.98;;;;;;;8.30;88.97;99916.91;10290601;28;20521;-71
2021/10/21 16:48:18;;;;;;;17.23;2.50;;;;;;;8.10;87.90;99938.25;10292971;28;20479;-71
2021/10/21 16:53:14;;;;;;;11.07;2.13;;;;;;;8.11;87.34;99950.72;10284045;28;20048;-71
2021/10/21 16:58:11;;;;;;;11.57;2.00;;;;;;;8.11;87.82;99975.22;10294453;28;20041;-71
2021/10/21 17:03:07;;;;;;;19.90;2.10;;;;;;;7.86;84.83;99989.59;10288705;28;20486;-72
2021/10/21 17:08:04;;;;;;;13.13;2.78;;;;;;;7.85;85.28;100012.50;10290682;28;20553;-73
2021/10/21 17:13:01;;;;;;;12.55;1.92;;;;;;;7.71;83.70;100001.75;10276483;28;20071;-73
2021/10/21 17:17:57;;;;;;;13.30;1.42;;;;;;;7.65;81.48;100003.78;10286941;28;20078;-73
2021/10/21 17:22:54;;;;;;;13.02;2.15;;;;;;;7.64;83.11;100007.66;10273361;28;20087;-73
2021/10/21 17:27:50;;;;;;;10.82;1.50;;;;;;;7.62;82.27;100019.97;10278154;28;20098;-73
2021/10/21 17:32:47;;;;;;;14.80;1.65;;;;;;;7.57;80.21;100026.34;10284710;28;20040;-73
2021/10/21 17:37:43;;;;;;;13.32;2.45;;;;;;;7.63;80.36;100055.00;10290502;28;20489;-73
2021/10/21 17:42:40;;;;;;;13.30;2.00;;;;;;;7.51;81.55;100062.97;10288613;28;20078;-73
2021/10/21 17:47:36;;;;;;;15.55;2.53;;;;;;;7.48;83.54;100058.16;10275355;28;20103;-72
2021/10/21 17:52:33;;;;;;;13.43;2.03;;;;;;;7.46;84.34;100060.38;10282357;28;20499;-72
2021/10/21 17:57:30;;;;;;;17.13;2.22;;;;;;;7.48;85.34;100085.34;10279178;28;20041;-73
2021/10/21 18:02:27;;;;;;;21.15;4.25;;;;;;;7.51;85.80;100125.53;10278718;28;20049;-73
2021/10/21 18:07:24;;;;;;;16.05;3.25;;;;;;;7.29;89.61;100139.97;10273718;28;20541;-73
2021/10/21 18:12:21;;;;;;;7.95;1.15;;;;;;;7.11;88.15;100126.22;10279711;28;20044;-72
2021/10/21 18:17:17;;;;;;;14.45;1.77;;;;;;;6.97;89.31;100130.13;10278828;28;20067;-73
2021/10/21 18:22:13;;;;;;;13.23;1.95;;;;;;;6.97;89.86;100141.78;10274353;28;20175;-72
2021/10/21 18:27:10;;;;;;;12.02;1.70;;;;;;;6.99;90.98;100144.22;10279437;28;20090;-72
2021/10/21 18:32:06;;;;;;;11.60;1.75;;;;;;;7.04;91.41;100152.25;10285365;28;20478;-73
2021/10/21 18:37:06;;;;;;;13.50;2.08;;;;;;;7.00;89.98;100152.03;10282333;28;20052;-72
2021/10/21 18:42:03;;;;;;;13.85;1.45;;;;;;;7.10;90.53;100183.63;10279760;28;20471;-72
2021/10/21 18:47:00;;;;;;;18.48;3.90;;;;;;;7.02;91.76;100195.22;10282733;28;20434;-72
2021/10/21 18:51:57;;;;;;;13.13;2.20;;;;;;;7.10;91.98;100221.69;10276814;28;20072;-72
2021/10/21 18:56:54;;;;;;;11.70;2.85;;;;;;;7.20;90.88;100232.34;10278858;28;20095;-73
2021/10/21 19:01:50;;;;;;;13.88;3.05;;;;;;;7.15;91.29;100221.59;10282040;28;20064;-72
2021/10/21 19:06:47;;;;;;;15.52;2.83;;;;;;;7.00;89.39;100227.34;10279850;28;20098;-73
2021/10/21 19:11:44;;;;;;;13.73;1.42;;;;;;;7.00;90.16;100243.66;10282491;28;20066;-72
2021/10/21 19:16:40;;;;;;;8.73;1.48;;;;;;;6.81;87.43;100241.88;10274669;28;20090;-72
2021/10/21 19:21:38;;;;;;;12.38;2.05;;;;;;;6.65;86.96;100281.34;10281843;28;20087;-73
2021/10/21 19:26:34;;;;;;;10.70;2.15;;;;;;;6.69;88.27;100296.72;10283475;28;20514;-72
2021/10/21 19:31:32;;;;;;;7.70;1.48;;;;;;;6.75;89.87;100324.59;10283716;28;20502;-73
2021/10/21 19:36:29;;;;;;;13.35;1.80;;;;;;;6.76;91.08;100277.31;10299969;28;20090;-72
2021/10/21 19:41:25;;;;;;;8.82;1.60;;;;;;;6.60;91.05;100292.31;10278117;28;20049;-71
2021/10/21 19:46:22;;;;;;;14.40;2.15;;;;;;;6.58;89.78;100283.66;10281474;28;20049;-71
2021/10/21 19:51:18;;;;;;;10.20;1.17;;;;;;;6.64;90.38;100296.03;10297570;28;20160;-72
2021/10/21 19:56:16;;;;;;;13.75;1.60;;;;;;;6.60;90.68;100339.28;10290628;28;20041;-72
2021/10/21 20:01:13;;;;;;;11.27;1.30;;;;;;;6.50;92.92;100345.72;10288608;28;20053;-68
2021/10/21 20:06:10;;;;;;;13.60;1.58;;;;;;;6.46;93.80;100344.69;10292352;28;20498;-67
2021/10/21 20:11:08;;;;;;;14.88;1.85;;;;;;;6.43;93.53;100334.44;10298956;28;20106;-68
2021/10/21 20:16:04;;;;;;;8.02;1.10;;;;;;;6.39;93.89;100349.72;10298412;28;20041;-67
2021/10/21 20:21:02;;;;;;;9.15;1.42;;;;;;;6.35;94.13;100370.41;10296062;28;20041;-69
2021/10/21 20:25:58;;;;;;;12.93;3.20;;;;;;;6.40;93.71;100373.03;10298462;28;20450;-68
2021/10/21 20:30:55;;;;;;;13.27;1.75;;;;;;;6.41;94.23;100374.66;10294384;28;20033;-71
2021/10/21 20:35:51;;;;;;;10.77;1.58;;;;;;;6.39;94.59;100406.75;10284301;28;20040;-69
2021/10/21 20:40:48;;;;;;;13.02;2.08;;;;;;;6.32;94.83;100430.75;10302477;28;20064;-69
2021/10/21 20:45:45;;;;;;;20.45;2.58;;;;;;;6.41;97.33;100423.56;10306457;28;20107;-69
2021/10/21 20:50:43;;;;;;;13.73;1.38;;;;;;;6.25;95.72;100409.41;10291008;28;20052;-69
2021/10/21 20:55:40;;;;;;;14.15;1.58;;;;;;;6.25;96.17;100420.28;10302462;28;20071;-69
2021/10/21 21:00:37;;;;;;;10.60;3.28;;;;;;;6.18;95.72;100395.41;10294500;28;20098;-68
2021/10/21 21:05:33;;;;;;;11.38;1.52;;;;;;;6.19;95.89;100405.16;10299693;28;20048;-68
2021/10/21 21:10:30;;;;;;;11.75;1.83;;;;;;;6.19;96.86;100423.34;10292384;28;20040;-68
2021/10/21 21:15:27;;;;;;;13.55;2.00;;;;;;;6.06;96.62;100416.78;10296010;28;20049;-69
2021/10/21 21:20:25;;;;;;;10.70;1.92;;;;;;;6.10;96.10;100424.03;10296573;28;20044;-68
2021/10/21 21:25:21;;;;;;;15.95;2.00;;;;;;;6.04;95.19;100455.06;10280023;28;20062;-68
2021/10/21 21:30:18;;;;;;;8.85;1.55;;;;;;;5.99;97.35;100438.88;10262308;28;20067;-67
2021/10/21 21:35:14;;;;;;;12.57;2.00;;;;;;;5.88;97.61;100432.72;10265816;28;20049;-68
2021/10/21 21:40:12;;;;;;;12.63;1.90;;;;;;;5.93;97.03;100440.00;10296570;28;20211;-66
2021/10/21 21:45:09;;;;;;;12.02;1.88;;;;;;;5.69;96.54;100462.56;10288789;28;20068;-67
2021/10/21 21:50:06;;;;;;;13.95;2.13;;;;;;;5.79;97.57;100466.25;10284554;28;20076;-67
2021/10/21 21:55:03;;;;;;;13.27;2.53;;;;;;;5.70;97.33;100458.75;10280227;28;20045;-68
2021/10/21 21:59:59;;;;;;;11.02;1.30;;;;;;;5.67;96.87;100453.91;10293561;28;20048;-67
2021/10/21 22:04:56;;;;;;;18.33;2.00;;;;;;;5.67;96.74;100464.75;10291336;28;20064;-69
2021/10/21 22:09:53;;;;;;;5.97;1.23;;;;;;;5.68;96.49;100466.34;10278338;28;20079;-68
2021/10/21 22:14:50;;;;;;;15.45;1.70;;;;;;;5.69;95.89;100473.41;10287357;28;20106;-67
2021/10/21 22:19:54;;;;;;;9.93;2.03;;;;;;;5.65;96.16;100461.53;10285131;28;20045;-69
2021/10/21 22:24:51;;;;;;;10.50;1.42;;;;;;;5.58;96.40;100471.94;10291632;28;20111;-68
2021/10/21 22:29:48;;;;;;;16.02;2.17;;;;;;;5.60;95.92;100477.88;10297728;28;20139;-67
2021/10/21 22:34:45;;;;;;;12.50;1.48;;;;;;;5.61;95.22;100476.75;10289513;28;20118;-68
2021/10/21 22:39:41;;;;;;;10.00;1.60;;;;;;;5.65;95.67;100488.66;10283792;28;20494;-69
2021/10/21 22:44:58;;;;;;;9.98;1.35;;;;;;;5.67;95.29;100486.47;10300909;28;20045;-68
2021/10/21 22:49:54;;;;;;;17.85;2.30;;;;;;;5.72;95.40;100484.78;10283634;28;20136;-68
2021/10/21 22:54:51;;;;;;;23.52;2.53;;;;;;;5.68;95.07;100482.63;10294351;28;20071;-67
2021/10/21 22:59:53;;;;;;;12.30;1.60;;;;;;;5.77;95.49;100482.00;10293307;28;20072;-68
2021/10/21 23:04:51;;;;;;;7.65;1.35;;;;;;;5.69;95.13;100503.25;10295798;28;20075;-69
2021/10/21 23:09:47;;;;;;;21.33;2.30;;;;;;;5.82;94.93;100519.91;10299220;28;20048;-66
2021/10/21 23:14:45;;;;;;;13.45;2.13;;;;;;;5.85;94.83;100520.16;10285840;28;20084;-66
2021/10/21 23:19:41;;;;;;;10.95;1.70;;;;;;;5.80;95.14;100516.69;10278633;28;20589;-66
2021/10/21 23:24:38;;;;;;;19.13;2.15;;;;;;;5.79;94.94;100523.22;10295208;28;20044;-67
2021/10/21 23:29:35;;;;;;;10.43;1.73;;;;;;;5.82;94.61;100530.78;10288840;28;20086;-67
2021/10/21 23:34:31;;;;;;;10.63;1.67;;;;;;;5.83;94.21;100532.41;10278365;28;20037;-69
2021/10/21 23:39:27;;;;;;;9.82;1.75;;;;;;;5.86;93.90;100526.38;10260419;28;20049;-71
2021/10/21 23:44:24;;;;;;;16.45;2.13;;;;;;;5.91;93.67;100534.47;10288680;28;20044;-72